Time;durP1;ratioP1;P1;durP2;ratioP2;P2;SDS_P1;SDS_P2;PMS_P1;PMS_P2;Temp;Humidity;BMP_temperature;BMP_pressure;BME280_temperature;BME280_humidity;BME280_pressure;Samples;Min_cycle;Max_cycle;Signal;HPM_P1;HPM_P2
2023/03/27 00:00:09;;;;;;;6.60;2.00;;;3.00;99.90;;;;;;4976239;28;20085;-68
2023/03/27 00:02:36;;;;;;;6.30;2.00;;;2.90;99.90;;;;;;4993031;28;20076;-69
2023/03/27 00:05:04;;;;;;;9.40;1.55;;;2.80;99.90;;;;;;4976106;28;20054;-69
2023/03/27 00:07:30;;;;;;;12.77;1.52;;;2.80;99.90;;;;;;4976461;28;20053;-69
2023/03/27 00:10:00;;;;;;;8.55;1.88;;;2.70;99.90;;;;;;4975478;28;20441;-69
2023/03/27 00:12:27;;;;;;;5.13;1.80;;;2.70;99.90;;;;;;4976217;28;20460;-70
2023/03/27 00:14:54;;;;;;;7.03;1.35;;;2.70;99.90;;;;;;4992514;28;20046;-70
2023/03/27 00:17:21;;;;;;;6.22;1.58;;;2.70;99.90;;;;;;4976486;28;20065;-70
2023/03/27 00:19:48;;;;;;;3.55;1.30;;;2.60;99.90;;;;;;4975871;28;20050;-69
2023/03/27 00:22:15;;;;;;;9.38;1.80;;;2.50;99.90;;;;;;4992750;28;20050;-69
2023/03/27 00:24:42;;;;;;;12.20;1.77;;;2.50;99.90;;;;;;4993079;28;20502;-69
2023/03/27 00:27:10;;;;;;;5.32;1.50;;;2.40;99.90;;;;;;4992997;28;20046;-70
2023/03/27 00:29:38;;;;;;;6.80;1.40;;;2.40;99.90;;;;;;4975288;28;20054;-70
2023/03/27 00:32:06;;;;;;;6.00;1.35;;;2.40;99.90;;;;;;4976020;28;20053;-70
2023/03/27 00:34:33;;;;;;;7.55;2.47;;;2.40;99.90;;;;;;4975533;28;20129;-70
2023/03/27 00:37:00;;;;;;;6.03;1.30;;;2.40;99.90;;;;;;4991873;28;20517;-70
2023/03/27 00:39:27;;;;;;;5.78;1.58;;;2.40;99.90;;;;;;4983082;28;20050;-70
2023/03/27 00:41:55;;;;;;;7.47;2.05;;;2.30;99.90;;;;;;4992779;28;20077;-70
2023/03/27 00:44:26;;;;;;;8.90;1.83;;;2.30;99.90;;;;;;4975232;28;20395;-70
2023/03/27 00:46:55;;;;;;;5.32;1.20;;;2.30;99.90;;;;;;4975949;28;20042;-69
2023/03/27 00:49:23;;;;;;;11.73;1.90;;;2.30;99.90;;;;;;4975331;28;20043;-70
2023/03/27 00:51:51;;;;;;;8.25;1.80;;;2.30;99.90;;;;;;4992238;28;20047;-70
2023/03/27 00:54:28;;;;;;;5.72;1.75;;;2.30;99.90;;;;;;4975778;28;20054;-70
2023/03/27 00:56:58;;;;;;;10.77;2.42;;;2.30;99.90;;;;;;4992220;28;20055;-70
2023/03/27 00:59:31;;;;;;;8.60;1.73;;;2.30;99.90;;;;;;4990443;28;20097;-69
2023/03/27 01:02:00;;;;;;;7.53;1.73;;;2.30;99.90;;;;;;4991049;28;20093;-70
2023/03/27 01:04:27;;;;;;;6.43;1.63;;;2.20;99.90;;;;;;4995865;28;20054;-69
2023/03/27 01:06:56;;;;;;;10.50;1.67;;;2.30;99.90;;;;;;4990858;28;20485;-70
2023/03/27 01:09:25;;;;;;;8.75;2.15;;;2.20;99.90;;;;;;4990900;28;20133;-69
2023/03/27 01:12:09;;;;;;;8.13;1.80;;;2.30;99.90;;;;;;4992051;28;20047;-69
2023/03/27 01:14:47;;;;;;;11.80;2.08;;;2.20;99.90;;;;;;4992570;28;20289;-70
2023/03/27 01:17:27;;;;;;;7.60;1.80;;;2.10;99.90;;;;;;4975709;28;20540;-69
2023/03/27 01:20:45;;;;;;;8.73;2.27;;;2.10;99.90;;;;;;4974632;28;20043;-69
2023/03/27 01:23:40;;;;;;;5.70;1.27;;;2.10;99.90;;;;;;4992990;28;20282;-69
2023/03/27 01:26:50;;;;;;;10.15;2.53;;;2.00;99.90;;;;;;4992042;28;20054;-69
2023/03/27 01:29:24;;;;;;;2.57;1.10;;;2.10;99.90;;;;;;4992216;28;20093;-70
2023/03/27 01:32:17;;;;;;;4.25;1.70;;;2.10;99.90;;;;;;4992396;28;20285;-70
2023/03/27 01:35:19;;;;;;;5.72;1.17;;;1.90;99.90;;;;;;4992386;28;20046;-69
2023/03/27 01:37:58;;;;;;;11.65;1.88;;;1.90;99.90;;;;;;4994174;28;20081;-69
2023/03/27 01:40:32;;;;;;;8.57;1.77;;;1.90;99.90;;;;;;4993043;28;20065;-69
2023/03/27 01:43:04;;;;;;;4.68;1.42;;;1.90;99.90;;;;;;4993681;28;20054;-69
2023/03/27 01:45:38;;;;;;;6.05;1.90;;;1.80;99.90;;;;;;4993750;28;20054;-69
2023/03/27 01:48:08;;;;;;;6.22;1.45;;;1.80;99.90;;;;;;4996660;28;20058;-68
2023/03/27 01:50:43;;;;;;;4.33;1.40;;;1.90;99.90;;;;;;5014611;28;20046;-69
2023/03/27 01:53:15;;;;;;;6.65;1.48;;;1.90;99.90;;;;;;4974905;28;20344;-69
2023/03/27 01:55:49;;;;;;;4.47;1.85;;;1.90;99.90;;;;;;4995357;28;20082;-68
2023/03/27 01:58:21;;;;;;;5.20;1.50;;;1.90;99.90;;;;;;4976602;28;20058;-69
2023/03/27 02:00:52;;;;;;;9.20;2.42;;;1.80;99.90;;;;;;4977235;28;20576;-69
2023/03/27 02:03:26;;;;;;;7.82;1.55;;;1.80;99.90;;;;;;4990436;28;20061;-69
2023/03/27 02:05:57;;;;;;;7.10;1.40;;;1.80;99.90;;;;;;4978014;28;20050;-70
2023/03/27 02:08:26;;;;;;;6.43;1.67;;;1.80;99.90;;;;;;4986702;28;20058;-70
2023/03/27 02:10:58;;;;;;;7.03;1.85;;;1.70;99.90;;;;;;4977885;28;20449;-68
2023/03/27 02:13:29;;;;;;;7.85;2.13;;;1.70;99.90;;;;;;4995047;28;20056;-70
2023/03/27 02:15:59;;;;;;;4.68;1.40;;;1.70;99.90;;;;;;4994632;28;20050;-70
2023/03/27 02:18:32;;;;;;;9.10;1.95;;;1.80;99.90;;;;;;4973977;28;20050;-69
2023/03/27 02:21:01;;;;;;;6.63;1.90;;;1.90;99.90;;;;;;4974012;28;20050;-69
2023/03/27 02:23:29;;;;;;;8.38;1.73;;;1.90;99.90;;;;;;4973035;28;20096;-70
2023/03/27 02:25:58;;;;;;;9.45;2.83;;;2.10;99.90;;;;;;4977298;28;20133;-69
2023/03/27 02:28:37;;;;;;;8.10;2.13;;;2.00;99.90;;;;;;4976698;28;20514;-69
2023/03/27 02:31:14;;;;;;;11.65;2.15;;;2.10;99.90;;;;;;4991537;28;20046;-69
2023/03/27 02:33:55;;;;;;;6.47;1.90;;;2.10;99.90;;;;;;4977268;28;20054;-69
2023/03/27 02:36:35;;;;;;;8.23;2.00;;;2.10;99.90;;;;;;4974607;28;20054;-69
2023/03/27 02:39:07;;;;;;;10.88;1.73;;;2.00;99.90;;;;;;4975996;28;20043;-69
2023/03/27 02:41:39;;;;;;;7.97;1.75;;;2.00;99.90;;;;;;4994078;28;20042;-69
2023/03/27 02:44:12;;;;;;;6.53;1.73;;;2.10;99.90;;;;;;4976789;28;20054;-68
2023/03/27 02:46:43;;;;;;;8.45;2.28;;;2.10;99.90;;;;;;4994536;28;20410;-69
2023/03/27 02:49:15;;;;;;;5.28;1.70;;;2.20;99.90;;;;;;4976720;28;20042;-69
2023/03/27 02:51:47;;;;;;;5.57;1.67;;;2.20;99.90;;;;;;4993694;28;20043;-69
2023/03/27 02:54:17;;;;;;;6.93;1.98;;;2.20;99.90;;;;;;4994511;28;20531;-69
2023/03/27 02:56:50;;;;;;;9.88;2.40;;;2.20;99.90;;;;;;4973092;28;20051;-69
2023/03/27 02:59:22;;;;;;;11.13;2.17;;;2.20;99.90;;;;;;4975161;28;20050;-70
2023/03/27 03:01:49;;;;;;;11.02;2.97;;;2.20;99.90;;;;;;4990077;28;20054;-69
2023/03/27 03:04:22;;;;;;;7.53;1.85;;;2.20;99.90;;;;;;4976229;28;20054;-70
2023/03/27 03:06:49;;;;;;;7.07;2.10;;;2.20;99.90;;;;;;4994002;28;20125;-70
2023/03/27 03:09:17;;;;;;;7.22;2.20;;;2.20;99.90;;;;;;4993873;28;20049;-69
2023/03/27 03:11:50;;;;;;;5.88;1.55;;;2.10;99.90;;;;;;4976013;28;20058;-69
2023/03/27 03:14:19;;;;;;;11.85;1.70;;;2.10;99.90;;;;;;4976551;28;20057;-69
2023/03/27 03:16:46;;;;;;;8.70;2.47;;;2.10;99.90;;;;;;4976481;28;20042;-69
2023/03/27 03:19:13;;;;;;;12.13;2.40;;;2.00;99.90;;;;;;4975622;28;20050;-68
2023/03/27 03:21:40;;;;;;;7.60;2.33;;;2.00;99.90;;;;;;4976616;28;20387;-69
2023/03/27 03:24:07;;;;;;;7.45;2.05;;;1.90;99.90;;;;;;4976533;28;20193;-69
2023/03/27 03:26:34;;;;;;;5.97;2.08;;;1.90;99.90;;;;;;4975947;28;20045;-68
2023/03/27 03:29:03;;;;;;;7.72;1.85;;;1.90;99.90;;;;;;4976185;28;20446;-69
2023/03/27 03:31:41;;;;;;;6.90;2.00;;;1.80;99.90;;;;;;4976313;28;20104;-69
2023/03/27 03:34:08;;;;;;;12.85;2.42;;;1.80;99.90;;;;;;4976143;28;20068;-71
2023/03/27 03:36:35;;;;;;;9.57;2.10;;;1.80;99.90;;;;;;4976441;28;20482;-70
2023/03/27 03:39:03;;;;;;;5.80;1.90;;;1.60;99.90;;;;;;4975322;28;20156;-69
2023/03/27 03:41:30;;;;;;;7.32;1.58;;;1.60;99.90;;;;;;4976002;28;20089;-70
2023/03/27 03:43:57;;;;;;;8.27;2.03;;;1.50;99.90;;;;;;4988911;28;20049;-69
2023/03/27 03:46:25;;;;;;;9.45;2.00;;;1.50;99.90;;;;;;4975288;28;20058;-69
2023/03/27 03:48:52;;;;;;;6.15;1.58;;;1.50;99.90;;;;;;4985000;28;20076;-69
2023/03/27 03:51:19;;;;;;;9.10;2.60;;;1.40;99.90;;;;;;4975346;28;20058;-69
2023/03/27 03:53:46;;;;;;;9.35;1.75;;;1.40;99.90;;;;;;4992354;28;20050;-70
2023/03/27 03:56:13;;;;;;;3.35;1.25;;;1.40;99.90;;;;;;4989671;28;20050;-69
2023/03/27 03:58:41;;;;;;;7.07;1.92;;;1.30;99.90;;;;;;5012820;28;20120;-69
2023/03/27 04:01:09;;;;;;;3.47;1.80;;;1.30;99.90;;;;;;4973073;28;20133;-69
2023/03/27 04:03:37;;;;;;;8.35;2.17;;;1.30;99.90;;;;;;4992405;28;20117;-69
2023/03/27 04:06:06;;;;;;;7.35;2.10;;;1.50;99.90;;;;;;4993591;28;20100;-69
2023/03/27 04:08:34;;;;;;;9.30;1.83;;;1.50;99.90;;;;;;4975920;28;20057;-69
2023/03/27 04:11:01;;;;;;;6.38;2.30;;;1.50;99.90;;;;;;4976105;28;20053;-69
2023/03/27 04:13:28;;;;;;;7.40;2.45;;;1.50;99.90;;;;;;4993347;28;20058;-69
2023/03/27 04:15:54;;;;;;;6.05;2.20;;;1.50;99.90;;;;;;4992363;28;20049;-69
2023/03/27 04:18:23;;;;;;;19.73;2.35;;;1.50;99.90;;;;;;4976175;28;20104;-69
2023/03/27 04:20:53;;;;;;;10.85;2.28;;;1.60;99.90;;;;;;4992780;28;20118;-68
2023/03/27 04:23:20;;;;;;;8.45;2.20;;;1.70;99.90;;;;;;4975701;28;20058;-69
2023/03/27 04:25:47;;;;;;;11.60;2.28;;;1.80;99.90;;;;;;4976057;28;20046;-69
2023/03/27 04:28:15;;;;;;;8.98;1.90;;;1.80;99.90;;;;;;4992560;28;20456;-69
2023/03/27 04:30:43;;;;;;;7.00;1.80;;;1.90;99.90;;;;;;4975883;28;20039;-68
2023/03/27 04:33:17;;;;;;;6.65;1.88;;;2.00;99.90;;;;;;4969270;28;20050;-69
2023/03/27 04:35:44;;;;;;;5.07;1.60;;;2.00;99.90;;;;;;4989474;28;20046;-69
2023/03/27 04:38:12;;;;;;;6.50;1.45;;;2.20;99.90;;;;;;4981142;28;20100;-69
2023/03/27 04:40:39;;;;;;;5.38;1.35;;;2.20;99.90;;;;;;4992973;28;20516;-70
2023/03/27 04:43:07;;;;;;;10.27;1.92;;;2.00;99.90;;;;;;4991708;28;20095;-69
2023/03/27 04:45:33;;;;;;;8.25;1.50;;;2.20;99.90;;;;;;4991874;28;20050;-69
2023/03/27 04:48:00;;;;;;;4.07;1.27;;;2.20;99.90;;;;;;4993464;28;20058;-67
2023/03/27 04:50:27;;;;;;;5.82;1.50;;;2.30;99.90;;;;;;4990399;28;20038;-67
2023/03/27 04:52:57;;;;;;;6.55;1.35;;;2.20;99.90;;;;;;4990622;28;20050;-68
2023/03/27 04:55:26;;;;;;;5.63;1.40;;;2.20;99.90;;;;;;4991455;28;20510;-70
2023/03/27 04:57:55;;;;;;;4.10;1.05;;;2.20;99.90;;;;;;4988752;28;20050;-69
2023/03/27 05:00:22;;;;;;;4.60;1.20;;;2.40;99.90;;;;;;4974348;28;20440;-69
2023/03/27 05:02:53;;;;;;;4.93;1.00;;;2.30;99.90;;;;;;4977862;28;20494;-69
2023/03/27 05:05:20;;;;;;;;;;;2.30;99.90;;;;;;4990191;28;20142;-69
2023/03/27 05:07:47;;;;;;;2.75;0.80;;;2.40;99.90;;;;;;4975138;28;20298;-69
2023/03/27 05:10:16;;;;;;;2.83;1.08;;;2.50;99.90;;;;;;4990484;28;20058;-69
2023/03/27 05:12:46;;;;;;;2.72;1.00;;;2.40;99.90;;;;;;4991596;28;20077;-68
2023/03/27 05:15:13;;;;;;;2.50;0.73;;;2.40;99.90;;;;;;4973880;28;20472;-68
2023/03/27 05:17:43;;;;;;;1.60;0.80;;;2.40;99.90;;;;;;4989108;28;20120;-68
2023/03/27 05:20:13;;;;;;;2.63;0.80;;;2.30;99.90;;;;;;4991207;28;20042;-68
2023/03/27 05:22:41;;;;;;;3.13;0.90;;;2.30;99.90;;;;;;4992965;28;20094;-68
2023/03/27 05:25:09;;;;;;;5.95;1.10;;;2.30;99.90;;;;;;4976902;28;20057;-68
2023/03/27 05:27:38;;;;;;;7.28;1.08;;;2.20;99.90;;;;;;4994201;28;20054;-68
2023/03/27 05:30:08;;;;;;;5.68;1.05;;;2.20;99.90;;;;;;4982442;28;20509;-69
2023/03/27 05:32:36;;;;;;;3.70;1.02;;;2.20;99.90;;;;;;4977235;28;20490;-70
2023/03/27 05:35:04;;;;;;;5.47;1.20;;;2.20;99.90;;;;;;4995492;28;20129;-70
2023/03/27 05:37:31;;;;;;;3.80;1.00;;;2.10;99.90;;;;;;4976635;28;20081;-70
2023/03/27 05:39:58;;;;;;;5.28;1.40;;;2.10;99.90;;;;;;4992825;28;20050;-69
2023/03/27 05:42:25;;;;;;;8.00;1.65;;;2.10;99.90;;;;;;4988666;28;20057;-70
2023/03/27 05:44:52;;;;;;;3.97;1.10;;;2.20;99.90;;;;;;4978041;28;20049;-69
2023/03/27 05:47:20;;;;;;;5.45;1.50;;;2.20;99.90;;;;;;4975930;28;20517;-69
2023/03/27 05:49:47;;;;;;;5.35;1.23;;;2.30;99.90;;;;;;4977901;28;20042;-69
2023/03/27 05:52:14;;;;;;;3.03;1.65;;;2.20;99.90;;;;;;4992361;28;20560;-69
2023/03/27 05:54:41;;;;;;;6.88;1.65;;;2.10;99.90;;;;;;4984525;28;20409;-69
2023/03/27 05:57:08;;;;;;;7.82;1.60;;;2.20;99.90;;;;;;4993419;28;20505;-69
2023/03/27 05:59:35;;;;;;;4.55;1.20;;;2.20;99.90;;;;;;4992641;28;20054;-68
2023/03/27 06:02:02;;;;;;;4.63;1.85;;;2.20;99.90;;;;;;4978720;28;20053;-68
2023/03/27 06:04:32;;;;;;;5.78;1.13;;;2.20;99.90;;;;;;4993366;28;20517;-68
2023/03/27 06:07:01;;;;;;;3.95;1.25;;;2.20;99.90;;;;;;4991933;28;20050;-68
2023/03/27 06:09:28;;;;;;;5.20;1.20;;;2.20;99.90;;;;;;4993962;28;20054;-68
2023/03/27 06:11:55;;;;;;;5.30;1.63;;;2.20;99.90;;;;;;4990469;28;20051;-67
2023/03/27 06:14:21;;;;;;;5.32;1.17;;;2.30;99.90;;;;;;4992972;28;20105;-67
2023/03/27 06:16:48;;;;;;;9.73;1.40;;;2.30;99.90;;;;;;4991975;28;20046;-68
2023/03/27 06:19:15;;;;;;;9.25;2.00;;;2.30;99.90;;;;;;4976895;28;20053;-68
2023/03/27 06:21:45;;;;;;;4.00;1.20;;;2.40;99.90;;;;;;5002374;28;20119;-67
2023/03/27 06:24:11;;;;;;;5.97;1.40;;;2.50;99.90;;;;;;4996238;28;20072;-68
2023/03/27 06:26:39;;;;;;;7.78;1.45;;;2.50;99.90;;;;;;4977133;28;20042;-69
2023/03/27 06:29:06;;;;;;;6.18;1.65;;;3.80;99.90;;;;;;4993022;28;20494;-68
2023/03/27 06:31:34;;;;;;;3.63;1.33;;;2.80;99.90;;;;;;4976863;28;20054;-69
2023/03/27 06:34:02;;;;;;;6.50;1.63;;;3.00;99.90;;;;;;4974107;28;20061;-69
2023/03/27 06:36:31;;;;;;;7.43;1.60;;;3.40;99.90;;;;;;4994211;28;20129;-67
2023/03/27 06:39:02;;;;;;;10.82;1.45;;;4.10;99.90;;;;;;4978273;28;20133;-69
2023/03/27 06:41:29;;;;;;;4.03;1.33;;;4.90;99.90;;;;;;5005498;28;20410;-69
2023/03/27 06:43:56;;;;;;;7.18;1.67;;;5.20;99.90;;;;;;4995095;28;20053;-69
2023/03/27 06:46:23;;;;;;;10.15;1.88;;;5.30;99.90;;;;;;4991574;28;20057;-70
2023/03/27 06:48:50;;;;;;;6.20;1.67;;;5.50;99.90;;;;;;4979524;28;20058;-69
2023/03/27 06:51:21;;;;;;;5.07;1.95;;;5.90;99.90;;;;;;4974832;28;20419;-70
2023/03/27 06:53:49;;;;;;;8.63;1.65;;;6.20;99.90;;;;;;4997523;28;20050;-69
2023/03/27 06:56:17;;;;;;;5.78;1.67;;;6.20;99.90;;;;;;4998931;28;20050;-69
2023/03/27 06:58:44;;;;;;;7.18;1.88;;;6.70;99.90;;;;;;4994738;28;20120;-70
2023/03/27 07:01:11;;;;;;;3.92;1.45;;;7.20;99.90;;;;;;4976670;28;20505;-69
2023/03/27 07:03:38;;;;;;;5.30;1.75;;;8.20;99.90;;;;;;4975454;28;20557;-69
2023/03/27 07:06:06;;;;;;;8.82;1.75;;;9.00;99.90;;;;;;4973594;28;20046;-69
2023/03/27 07:08:33;;;;;;;7.03;2.00;;;9.70;99.90;;;;;;4976462;28;20050;-69
2023/03/27 07:11:00;;;;;;;7.22;1.58;;;10.20;99.90;;;;;;4973693;28;20128;-69
2023/03/27 07:13:28;;;;;;;13.32;1.65;;;10.60;99.90;;;;;;4997129;28;20068;-70
2023/03/27 07:15:55;;;;;;;6.85;1.50;;;10.70;99.90;;;;;;4990349;28;20061;-70
2023/03/27 07:18:22;;;;;;;8.25;2.10;;;10.80;99.90;;;;;;4973899;28;20120;-69
2023/03/27 07:20:50;;;;;;;9.13;2.20;;;10.30;99.90;;;;;;4974236;28;20457;-69
2023/03/27 07:23:17;;;;;;;6.75;1.90;;;10.40;99.90;;;;;;4976140;28;20418;-70
2023/03/27 07:25:43;;;;;;;5.75;1.48;;;11.00;99.90;;;;;;4991513;28;20057;-70
2023/03/27 07:28:15;;;;;;;9.18;2.22;;;11.30;99.90;;;;;;4999565;28;20457;-70
2023/03/27 07:30:43;;;;;;;8.65;1.70;;;12.20;99.90;;;;;;4993054;28;20414;-70
2023/03/27 07:33:11;;;;;;;4.82;1.48;;;12.80;99.00;;;;;;4974316;28;20050;-70
2023/03/27 07:35:41;;;;;;;7.57;1.65;;;12.80;99.20;;;;;;4974843;28;20050;-70
2023/03/27 07:38:09;;;;;;;;;;;12.60;98.30;;;;;;4989010;28;20105;-69
2023/03/27 07:40:37;;;;;;;6.88;1.45;;;11.50;99.30;;;;;;4989432;28;20405;-69
2023/03/27 07:43:05;;;;;;;6.85;1.73;;;10.20;99.90;;;;;;4974874;28;20101;-69
2023/03/27 07:45:34;;;;;;;4.60;1.27;;;9.10;99.90;;;;;;4978136;28;20065;-70
2023/03/27 07:48:07;;;;;;;2.95;1.00;;;8.00;99.90;;;;;;4988910;28;20050;-70
2023/03/27 07:50:34;;;;;;;4.85;1.42;;;7.30;99.90;;;;;;4984682;28;20109;-70
2023/03/27 07:53:02;;;;;;;4.25;1.38;;;7.10;99.90;;;;;;4972240;28;20078;-70
2023/03/27 07:55:30;;;;;;;2.97;0.93;;;6.50;99.90;;;;;;4971857;28;20063;-70
2023/03/27 07:57:57;;;;;;;3.00;1.08;;;6.50;99.90;;;;;;4987601;28;20105;-69
2023/03/27 08:00:24;;;;;;;3.20;1.00;;;6.50;99.90;;;;;;4974276;28;20494;-70
2023/03/27 08:02:52;;;;;;;3.22;0.98;;;7.40;99.90;;;;;;4975758;28;20446;-70
2023/03/27 08:05:20;;;;;;;4.15;1.17;;;9.10;99.90;;;;;;4995977;28;20046;-70
2023/03/27 08:07:47;;;;;;;5.45;1.20;;;10.40;99.90;;;;;;4975450;28;20486;-70
2023/03/27 08:10:14;;;;;;;6.30;1.40;;;11.40;99.90;;;;;;4994528;28;20053;-70
2023/03/27 08:12:41;;;;;;;2.58;0.90;;;12.00;99.90;;;;;;4979691;28;20122;-71
2023/03/27 08:15:09;;;;;;;3.92;1.33;;;12.40;99.90;;;;;;4981001;28;20058;-69
2023/03/27 08:17:36;;;;;;;3.42;1.15;;;12.50;99.90;;;;;;4993522;28;20047;-70
2023/03/27 08:20:07;;;;;;;3.28;1.17;;;13.10;99.90;;;;;;4972307;28;20042;-71
2023/03/27 08:22:37;;;;;;;5.45;1.10;;;13.30;98.80;;;;;;4977135;28;20133;-72
2023/03/27 08:25:05;;;;;;;3.15;1.15;;;13.90;97.00;;;;;;4992420;28;20053;-70
2023/03/27 08:27:32;;;;;;;4.93;1.20;;;14.10;96.70;;;;;;4994483;28;20164;-70
2023/03/27 08:30:00;;;;;;;5.13;1.75;;;14.70;97.00;;;;;;4977565;28;20399;-72
2023/03/27 08:32:27;;;;;;;3.55;1.58;;;15.00;96.40;;;;;;4990785;28;20057;-71
2023/03/27 08:34:54;;;;;;;5.93;1.63;;;14.50;94.20;;;;;;4989861;28;20104;-70
2023/03/27 08:37:22;;;;;;;5.80;1.35;;;14.80;95.80;;;;;;4973950;28;20518;-71
2023/03/27 08:39:50;;;;;;;4.50;1.60;;;15.20;94.30;;;;;;4999910;28;20069;-70
2023/03/27 08:42:21;;;;;;;2.95;1.33;;;15.40;94.10;;;;;;4989140;28;20079;-71
2023/03/27 08:44:53;;;;;;;12.40;2.00;;;14.80;94.40;;;;;;4990306;28;20498;-70
2023/03/27 08:47:35;;;;;;;5.28;1.38;;;14.70;94.40;;;;;;4990352;28;20057;-71
2023/03/27 08:50:10;;;;;;;5.57;1.50;;;15.20;93.10;;;;;;4973345;28;20058;-71
2023/03/27 08:52:39;;;;;;;5.65;1.30;;;15.60;93.00;;;;;;4989952;28;20129;-71
2023/03/27 08:55:14;;;;;;;15.20;1.85;;;16.20;94.00;;;;;;4974532;28;20477;-71
2023/03/27 08:57:42;;;;;;;4.68;1.38;;;16.10;91.70;;;;;;4992290;28;20081;-70
2023/03/27 09:00:18;;;;;;;3.83;1.40;;;15.30;90.50;;;;;;4978602;28;20181;-71
2023/03/27 09:02:53;;;;;;;7.50;1.33;;;15.80;90.40;;;;;;4976925;28;20050;-71
2023/03/27 09:05:26;;;;;;;7.15;1.08;;;15.40;88.90;;;;;;4995012;28;20073;-70
2023/03/27 09:08:01;;;;;;;4.80;1.30;;;14.40;89.60;;;;;;4992197;28;20070;-70
2023/03/27 09:10:36;;;;;;;8.93;1.85;;;13.20;91.60;;;;;;4985090;28;20085;-70
2023/03/27 09:13:10;;;;;;;6.22;1.27;;;13.50;93.00;;;;;;4975901;28;20050;-71
2023/03/27 09:15:41;;;;;;;2.83;1.00;;;14.10;92.40;;;;;;4993631;28;20109;-70
2023/03/27 09:18:14;;;;;;;3.65;1.40;;;14.70;91.60;;;;;;4977739;28;20054;-71
2023/03/27 09:20:45;;;;;;;3.33;0.85;;;14.20;91.00;;;;;;4993369;28;20470;-70
2023/03/27 09:23:16;;;;;;;4.57;1.10;;;13.40;90.50;;;;;;4994295;28;20561;-70
2023/03/27 09:25:49;;;;;;;3.30;0.88;;;13.10;91.70;;;;;;4992772;28;20449;-70
2023/03/27 09:28:21;;;;;;;3.58;0.88;;;14.40;91.20;;;;;;4978376;28;20046;-70
2023/03/27 09:30:48;;;;;;;2.80;0.70;;;14.40;89.40;;;;;;4991755;28;20050;-70
2023/03/27 09:33:16;;;;;;;8.38;1.08;;;13.90;89.20;;;;;;4994320;28;20141;-71
2023/03/27 09:35:43;;;;;;;6.15;0.98;;;13.90;89.20;;;;;;4993317;28;20414;-71
2023/03/27 09:38:23;;;;;;;3.22;0.82;;;13.90;89.80;;;;;;4977607;28;20054;-71
2023/03/27 09:40:57;;;;;;;3.15;0.88;;;15.20;86.90;;;;;;4993202;28;20043;-70
2023/03/27 09:43:28;;;;;;;2.15;0.88;;;15.60;84.70;;;;;;4978137;28;20050;-71
2023/03/27 09:45:56;;;;;;;3.58;1.02;;;16.10;86.10;;;;;;4992244;28;20122;-71
2023/03/27 09:48:31;;;;;;;3.30;0.90;;;16.70;85.20;;;;;;4979404;28;20132;-71
2023/03/27 09:50:58;;;;;;;2.65;0.80;;;17.20;83.80;;;;;;4976994;28;20142;-71
2023/03/27 09:53:26;;;;;;;7.65;1.20;;;17.20;80.30;;;;;;5005474;28;20494;-71
2023/03/27 09:55:57;;;;;;;7.85;1.10;;;17.30;79.60;;;;;;4981473;28;20062;-71
2023/03/27 09:58:39;;;;;;;4.30;1.00;;;17.60;78.90;;;;;;4993310;28;20483;-71
2023/03/27 10:01:14;;;;;;;2.95;1.00;;;16.90;78.30;;;;;;4977157;28;20085;-71
2023/03/27 10:03:48;;;;;;;3.58;1.20;;;15.80;79.50;;;;;;4975845;28;20061;-71
2023/03/27 10:06:24;;;;;;;5.05;1.27;;;14.50;82.30;;;;;;5004695;28;20045;-71
2023/03/27 10:08:52;;;;;;;3.58;0.98;;;14.60;84.50;;;;;;4990508;28;20557;-71
2023/03/27 10:11:23;;;;;;;7.47;1.15;;;15.60;83.90;;;;;;4994720;28;20042;-70
2023/03/27 10:13:52;;;;;;;4.03;0.93;;;16.00;81.60;;;;;;4993151;28;20125;-71
2023/03/27 10:16:21;;;;;;;5.97;1.17;;;14.80;79.10;;;;;;4993402;28;20066;-70
2023/03/27 10:18:51;;;;;;;3.00;0.90;;;14.60;81.80;;;;;;4993982;28;20054;-69
2023/03/27 10:21:25;;;;;;;3.67;1.00;;;14.60;82.80;;;;;;4993536;28;20060;-70
2023/03/27 10:24:00;;;;;;;7.85;1.00;;;14.10;83.30;;;;;;4977364;28;20461;-70
2023/03/27 10:26:31;;;;;;;3.10;1.10;;;13.60;85.20;;;;;;4991937;28;20050;-70
2023/03/27 10:29:01;;;;;;;5.60;1.08;;;14.30;84.00;;;;;;4976631;28;20049;-71
2023/03/27 10:31:31;;;;;;;4.20;1.10;;;15.10;81.70;;;;;;4975479;28;20141;-71
2023/03/27 10:34:01;;;;;;;5.70;0.75;;;15.80;79.60;;;;;;4993399;28;20050;-71
2023/03/27 10:36:33;;;;;;;2.60;1.02;;;16.90;77.90;;;;;;4994556;28;20050;-70
2023/03/27 10:39:04;;;;;;;3.63;1.00;;;17.80;74.50;;;;;;4993721;28;20042;-71
2023/03/27 10:41:34;;;;;;;2.72;1.13;;;17.20;76.70;;;;;;4992248;28;20050;-71
2023/03/27 10:44:04;;;;;;;5.25;0.80;;;17.10;74.10;;;;;;4994060;28;20050;-70
2023/03/27 10:46:37;;;;;;;3.47;1.27;;;17.30;75.30;;;;;;4975041;28;20441;-70
2023/03/27 10:49:14;;;;;;;2.97;0.90;;;17.60;74.80;;;;;;4988673;28;20050;-70
2023/03/27 10:51:48;;;;;;;4.43;0.82;;;16.40;72.20;;;;;;4974644;28;20046;-71
2023/03/27 10:54:25;;;;;;;4.88;1.55;;;15.10;75.30;;;;;;4992701;28;20497;-70
2023/03/27 10:57:01;;;;;;;5.15;1.20;;;15.80;77.80;;;;;;4972202;28;20050;-71
2023/03/27 10:59:33;;;;;;;4.15;1.17;;;16.90;77.50;;;;;;4972789;28;20074;-72
2023/03/27 11:02:03;;;;;;;2.42;0.80;;;17.90;75.20;;;;;;4973610;28;20093;-71
2023/03/27 11:04:42;;;;;;;5.47;1.52;;;18.60;71.10;;;;;;4955580;28;20483;-71
2023/03/27 11:07:16;;;;;;;6.25;1.30;;;18.40;70.40;;;;;;4971596;28;20093;-71
2023/03/27 11:09:56;;;;;;;8.75;1.30;;;17.60;72.80;;;;;;4974130;28;20073;-71
2023/03/27 11:12:27;;;;;;;4.60;1.00;;;17.60;73.00;;;;;;4952863;28;20494;-71
2023/03/27 11:15:00;;;;;;;4.55;1.10;;;17.20;73.80;;;;;;4952862;28;20047;-71
2023/03/27 11:17:32;;;;;;;8.55;1.60;;;16.20;74.50;;;;;;4969979;28;20458;-71
2023/03/27 11:20:05;;;;;;;5.55;1.30;;;15.70;76.20;;;;;;4972579;28;20058;-72
2023/03/27 11:22:38;;;;;;;3.25;0.98;;;14.90;82.00;;;;;;4971547;28;20133;-70
2023/03/27 11:25:14;;;;;;;6.72;1.48;;;13.40;87.40;;;;;;4972128;28;20577;-70
2023/03/27 11:27:49;;;;;;;3.00;1.10;;;12.20;91.90;;;;;;4972785;28;20055;-71
2023/03/27 11:30:33;;;;;;;3.08;1.10;;;10.90;93.20;;;;;;4971931;28;20039;-70
2023/03/27 11:33:14;;;;;;;4.55;1.00;;;9.70;96.70;;;;;;4971484;28;20047;-71
2023/03/27 11:35:47;;;;;;;6.43;1.92;;;9.70;99.90;;;;;;4956286;28;20110;-68
2023/03/27 11:38:19;;;;;;;5.20;1.70;;;11.10;99.90;;;;;;4969332;28;20130;-70
2023/03/27 11:40:48;;;;;;;6.55;1.65;;;12.60;99.90;;;;;;4977146;28;20199;-70
2023/03/27 11:43:18;;;;;;;5.00;1.55;;;14.00;98.50;;;;;;4951569;28;20047;-70
2023/03/27 11:45:47;;;;;;;;;;;15.10;96.70;;;;;;4972639;28;20051;-71
2023/03/27 11:48:38;;;;;;;4.95;0.90;;;14.80;93.80;;;;;;4953827;28;19930;-72
2023/03/27 11:51:12;;;;;;;4.80;1.50;;;15.00;90.70;;;;;;4969574;28;20517;-71
2023/03/27 11:53:52;;;;;;;7.68;1.80;;;14.80;88.70;;;;;;4972370;28;20047;-72
2023/03/27 11:56:30;;;;;;;4.95;1.10;;;14.70;92.30;;;;;;4988549;28;20054;-71
2023/03/27 11:59:12;;;;;;;5.03;1.40;;;13.70;88.10;;;;;;4990873;28;20498;-71
2023/03/27 12:01:44;;;;;;;3.47;1.30;;;14.00;90.90;;;;;;4991166;28;20062;-71
2023/03/27 12:04:38;;;;;;;5.57;1.58;;;15.20;90.00;;;;;;4991810;28;20051;-71
2023/03/27 12:07:12;;;;;;;4.38;1.73;;;16.10;83.60;;;;;;4975029;28;20056;-71
2023/03/27 12:09:55;;;;;;;3.95;1.35;;;16.30;83.40;;;;;;4992176;28;20046;-71
2023/03/27 12:12:45;;;;;;;4.07;1.20;;;16.50;81.10;;;;;;4996911;28;20046;-71
2023/03/27 12:15:32;;;;;;;4.90;1.38;;;17.00;79.10;;;;;;4982966;28;20054;-71
2023/03/27 12:18:11;;;;;;;5.07;1.40;;;16.40;81.20;;;;;;4971923;28;20112;-71
2023/03/27 12:20:51;;;;;;;6.45;1.35;;;16.10;79.40;;;;;;4988652;28;20049;-72
2023/03/27 12:23:46;;;;;;;5.07;1.20;;;15.50;76.80;;;;;;4996476;28;20050;-72
2023/03/27 12:26:34;;;;;;;5.45;1.10;;;14.20;79.00;;;;;;4993866;28;20490;-70
2023/03/27 12:29:17;;;;;;;4.20;0.98;;;14.60;83.00;;;;;;4973656;28;20457;-71
2023/03/27 12:32:01;;;;;;;4.32;1.10;;;14.10;82.60;;;;;;4973518;28;20061;-71
2023/03/27 12:34:41;;;;;;;4.78;1.25;;;14.10;84.70;;;;;;4975506;28;20051;-69
2023/03/27 12:37:11;;;;;;;4.63;1.33;;;14.00;83.20;;;;;;4995726;28;20054;-70
2023/03/27 12:39:45;;;;;;;8.52;2.10;;;13.80;83.40;;;;;;4974999;28;20078;-69
2023/03/27 12:42:38;;;;;;;5.82;1.52;;;13.50;86.90;;;;;;4988413;28;20046;-69
2023/03/27 12:45:14;;;;;;;3.10;1.02;;;13.60;89.60;;;;;;4992242;28;20061;-70
2023/03/27 12:47:45;;;;;;;2.13;0.75;;;15.10;86.70;;;;;;4971455;28;20133;-69
2023/03/27 12:50:21;;;;;;;4.18;0.80;;;15.60;82.60;;;;;;4987962;28;20046;-70
2023/03/27 12:52:48;;;;;;;2.45;0.88;;;16.20;81.10;;;;;;4996051;28;20085;-70
2023/03/27 12:55:32;;;;;;;3.08;1.00;;;16.80;80.00;;;;;;4982176;28;20108;-72
2023/03/27 12:58:01;;;;;;;5.03;0.88;;;17.30;79.40;;;;;;4984062;28;20054;-71
2023/03/27 13:00:29;;;;;;;5.22;1.58;;;17.00;78.50;;;;;;4959724;28;20506;-71
2023/03/27 13:03:37;;;;;;;4.53;1.65;;;17.00;77.90;;;;;;4969062;28;20046;-72
2023/03/27 13:06:18;;;;;;;7.32;1.70;;;17.10;78.00;;;;;;4958609;28;20058;-71
2023/03/27 13:09:17;;;;;;;6.45;1.83;;;17.00;78.40;;;;;;4985643;28;20055;-72
2023/03/27 13:12:08;;;;;;;5.68;1.50;;;16.70;78.10;;;;;;4982371;28;20050;-71
2023/03/27 13:15:13;;;;;;;6.22;1.63;;;15.50;81.50;;;;;;4980943;28;20121;-71